Terminal Aerodrome Forecast
Issued by NWS

Home | Current Version | Previous Version | Text Only | Print | Product List | Glossary On
Versions: 1 2 3 4 5 6 7 8 9 10 11 12 13 14 15 16 17 18 19
000
FTUS43 KGRB 282324
TAFAUW
TAF
KAUW 282324Z 2900/2924 10007KT P6SM VCSH OVC050
     FM290200 07006KT P6SM VCSH OVC045
     FM290500 06004KT P6SM OVC040
     FM290700 00000KT P6SM OVC050
     FM291600 05006KT P6SM BKN070
     FM291700 05007KT P6SM SCT070
     FM292000 08006KT P6SM SCT100
     FM292300 11006KT P6SM SCT090=

USA.gov is the U.S. government's official web portal to all federal, state and local government web resources and services.